createdAt,value
2023-04-01T00:01:20.999Z,5.50
2023-04-01T00:03:48.343Z,5.50
2023-04-01T00:06:16.446Z,5.50
2023-04-01T00:08:43.253Z,5.60
2023-04-01T00:11:09.990Z,5.50
2023-04-01T00:13:36.943Z,5.50
2023-04-01T00:16:17.779Z,5.60
2023-04-01T00:18:51.085Z,5.50
2023-04-01T00:21:18.424Z,5.60
2023-04-01T00:23:45.267Z,5.60
2023-04-01T00:26:13.392Z,5.60
2023-04-01T00:28:40.421Z,5.60
2023-04-01T00:31:08.102Z,5.60
2023-04-01T00:33:35.005Z,5.60
2023-04-01T00:36:11.790Z,5.70
2023-04-01T00:38:39.262Z,5.60
2023-04-01T00:41:06.599Z,5.60
2023-04-01T00:43:33.818Z,5.60
2023-04-01T00:46:00.617Z,5.70
2023-04-01T00:48:32.460Z,5.70
2023-04-01T00:51:02.010Z,5.70
2023-04-01T00:53:29.321Z,5.60
2023-04-01T00:56:05.638Z,5.60
2023-04-01T00:58:34.445Z,5.60
2023-04-01T01:01:01.983Z,5.60
2023-04-01T01:03:29.151Z,5.60
2023-04-01T01:05:56.163Z,5.60
2023-04-01T01:08:31.839Z,5.60
2023-04-01T01:10:58.633Z,5.60
2023-04-01T01:13:41.415Z,5.60
2023-04-01T01:16:12.715Z,5.60
2023-04-01T01:18:50.249Z,5.60
2023-04-01T01:21:35.855Z,5.60
2023-04-01T01:24:21.559Z,5.50
2023-04-01T01:26:57.410Z,5.50
2023-04-01T01:29:24.159Z,5.60
2023-04-01T01:32:02.836Z,5.50
2023-04-01T01:34:36.021Z,5.60
2023-04-01T01:37:04.593Z,5.60
2023-04-01T01:39:32.560Z,5.50
2023-04-01T01:42:01.461Z,5.50
2023-04-01T01:44:29.714Z,5.50
2023-04-01T01:46:57.400Z,5.50
2023-04-01T01:49:24.704Z,5.60
2023-04-01T01:51:51.523Z,5.50
2023-04-01T01:54:18.811Z,5.40
2023-04-01T01:56:48.140Z,5.30
2023-04-01T01:59:15.987Z,5.40
2023-04-01T02:01:45.430Z,5.30
2023-04-01T02:04:14.299Z,5.40
2023-04-01T02:06:43.849Z,5.40
2023-04-01T02:09:11.759Z,5.50
2023-04-01T02:11:45.212Z,5.40
2023-04-01T02:14:14.898Z,5.40
2023-04-01T02:16:45.032Z,5.40
2023-04-01T02:19:13.429Z,5.40
2023-04-01T02:21:40.786Z,5.40
2023-04-01T02:24:11.408Z,5.40
2023-04-01T02:26:38.476Z,5.40
2023-04-01T02:29:08.267Z,5.40
2023-04-01T02:31:35.530Z,5.50
2023-04-01T02:34:03.211Z,5.50
2023-04-01T02:36:30.295Z,5.50
2023-04-01T02:39:00.208Z,5.60
2023-04-01T02:41:27.245Z,5.60
2023-04-01T02:43:54.002Z,5.50
2023-04-01T02:46:20.802Z,5.50
2023-04-01T02:48:47.690Z,5.50
2023-04-01T02:51:15.528Z,5.50
2023-04-01T02:53:43.452Z,5.60
2023-04-01T02:56:10.230Z,5.60
2023-04-01T02:58:36.970Z,5.60
2023-04-01T03:01:03.875Z,5.50
2023-04-01T03:03:30.727Z,5.60
2023-04-01T03:05:59.631Z,5.50
2023-04-01T03:08:26.394Z,5.60
2023-04-01T03:10:53.143Z,5.50
2023-04-01T03:13:19.876Z,5.50
2023-04-01T03:15:46.617Z,5.50
2023-04-01T03:18:13.391Z,5.50
2023-04-01T03:20:40.341Z,5.50
2023-04-01T03:23:07.136Z,5.50
2023-04-01T03:25:34.725Z,5.50
2023-04-01T03:28:02.194Z,5.50
2023-04-01T03:30:30.951Z,5.50
2023-04-01T03:32:58.594Z,5.50
2023-04-01T03:35:25.515Z,5.60
2023-04-01T03:37:52.960Z,5.60
2023-04-01T03:40:20.019Z,5.60
2023-04-01T03:42:47.008Z,5.60
2023-04-01T03:45:13.998Z,5.70
2023-04-01T03:47:41.076Z,5.70
2023-04-01T03:50:14.366Z,5.60
2023-04-01T03:52:41.161Z,5.60
2023-04-01T03:55:08.128Z,5.60
2023-04-01T03:57:34.954Z,5.60
2023-04-01T04:00:01.734Z,5.60
2023-04-01T04:02:28.618Z,5.70
2023-04-01T04:04:55.554Z,5.70
2023-04-01T04:07:22.312Z,5.70
2023-04-01T04:09:49.101Z,5.70
2023-04-01T04:12:15.995Z,5.70
2023-04-01T04:14:42.738Z,5.70
2023-04-01T04:17:14.816Z,5.70
2023-04-01T04:19:41.566Z,5.70
2023-04-01T04:22:08.494Z,5.70
2023-04-01T04:24:36.168Z,5.70
2023-04-01T04:27:03.109Z,5.70
2023-04-01T04:29:30.264Z,5.70
2023-04-01T04:31:57.517Z,5.70
2023-04-01T04:34:24.679Z,5.70
2023-04-01T04:36:51.712Z,5.70
2023-04-01T04:39:18.844Z,5.80
2023-04-01T04:41:45.798Z,5.70
2023-04-01T04:44:12.725Z,5.80
2023-04-01T04:46:40.440Z,5.80
2023-04-01T04:49:07.541Z,5.80
2023-04-01T04:51:36.778Z,5.90
2023-04-01T04:54:04.052Z,5.90
2023-04-01T04:56:31.780Z,5.80
2023-04-01T04:58:58.886Z,5.80
2023-04-01T05:01:26.189Z,5.80
2023-04-01T05:03:53.113Z,5.80
2023-04-01T05:06:22.961Z,5.80
2023-04-01T05:08:50.480Z,5.80
2023-04-01T05:11:20.697Z,5.80
2023-04-01T05:13:47.514Z,5.80
2023-04-01T05:16:15.488Z,5.80
2023-04-01T05:18:42.418Z,5.80
2023-04-01T05:21:10.203Z,5.80
2023-04-01T05:23:37.320Z,5.80
2023-04-01T05:26:08.155Z,5.80
2023-04-01T05:28:34.949Z,5.70
2023-04-01T05:31:02.198Z,5.80
2023-04-01T05:33:29.017Z,5.70
2023-04-01T05:35:55.900Z,5.80
2023-04-01T05:38:22.758Z,5.80
2023-04-01T05:40:49.551Z,5.80
2023-04-01T05:43:16.348Z,5.80
2023-04-01T05:45:43.284Z,5.80
2023-04-01T05:48:10.046Z,5.80
2023-04-01T05:50:36.793Z,5.80
2023-04-01T05:53:03.657Z,5.80
2023-04-01T05:55:30.467Z,5.80
2023-04-01T05:57:57.344Z,5.80
2023-04-01T06:00:24.208Z,5.80
2023-04-01T06:02:51.119Z,5.80
2023-04-01T06:05:25.562Z,5.80
2023-04-01T06:07:56.542Z,5.80
2023-04-01T06:10:27.245Z,5.80
2023-04-01T06:13:11.992Z,5.80
2023-04-01T06:15:49.572Z,5.80
2023-04-01T06:18:16.328Z,5.80
2023-04-01T06:20:56.972Z,5.80
2023-04-01T06:23:32.563Z,5.80
2023-04-01T06:25:59.347Z,5.80
2023-04-01T06:28:40.710Z,5.90
2023-04-01T06:31:26.730Z,5.80
2023-04-01T06:34:16.775Z,5.90
2023-04-01T06:36:43.592Z,5.80
2023-04-01T06:39:19.327Z,5.90
2023-04-01T06:41:58.676Z,5.90
2023-04-01T06:44:45.820Z,5.90
2023-04-01T06:47:25.480Z,5.90
2023-04-01T06:50:01.233Z,5.90
2023-04-01T06:52:30.887Z,5.90
2023-04-01T06:55:16.119Z,5.90
2023-04-01T06:57:45.010Z,5.90
2023-04-01T07:00:22.685Z,5.90
2023-04-01T07:02:54.824Z,5.90
2023-04-01T07:05:21.829Z,5.90
2023-04-01T07:07:51.347Z,6.00
2023-04-01T07:10:20.671Z,6.00
2023-04-01T07:12:50.091Z,5.90
2023-04-01T07:15:16.837Z,6.00
2023-04-01T07:17:44.891Z,6.00
2023-04-01T07:20:27.368Z,6.00
2023-04-01T07:22:57.298Z,6.00
2023-04-01T07:25:29.773Z,6.10
2023-04-01T07:27:59.627Z,6.10
2023-04-01T07:30:30.080Z,6.20
2023-04-01T07:33:10.232Z,6.20
2023-04-01T07:35:39.960Z,6.20
2023-04-01T07:38:18.767Z,6.30
2023-04-01T07:40:48.324Z,6.20
2023-04-01T07:43:15.034Z,6.30
2023-04-01T07:46:05.613Z,6.30
2023-04-01T07:48:51.269Z,6.30
2023-04-01T07:51:21.196Z,6.30
2023-04-01T07:53:54.215Z,6.30
2023-04-01T07:56:21.045Z,6.30
2023-04-01T07:58:53.491Z,6.30
2023-04-01T08:01:20.269Z,6.30
2023-04-01T08:04:02.617Z,6.30
2023-04-01T08:06:45.946Z,6.30
2023-04-01T08:09:12.712Z,6.30
2023-04-01T08:11:41.292Z,6.40
2023-04-01T08:14:28.870Z,6.40
2023-04-01T08:17:05.394Z,6.40
2023-04-01T08:19:41.715Z,6.40
2023-04-01T08:22:11.772Z,6.50
2023-04-01T08:24:48.177Z,6.50
2023-04-01T08:27:32.300Z,6.50
2023-04-01T08:30:05.267Z,6.50
2023-04-01T08:32:39.800Z,6.50
2023-04-01T08:35:16.630Z,6.50
2023-04-01T08:37:44.294Z,6.40
2023-04-01T08:40:29.425Z,6.40
2023-04-01T08:43:05.362Z,6.40
2023-04-01T08:45:57.949Z,6.50
2023-04-01T08:48:24.690Z,6.40
2023-04-01T08:51:10.081Z,6.40
2023-04-01T08:53:42.997Z,6.40
2023-04-01T08:56:09.730Z,6.40
2023-04-01T08:58:36.546Z,6.40
2023-04-01T09:01:12.759Z,6.40
2023-04-01T09:03:39.716Z,6.30
2023-04-01T09:06:22.023Z,6.40
2023-04-01T09:09:07.662Z,6.30
2023-04-01T09:11:53.214Z,6.30
2023-04-01T09:14:38.688Z,6.30
2023-04-01T09:17:14.241Z,6.20
2023-04-01T09:19:49.800Z,6.20
2023-04-01T09:22:19.919Z,6.30
2023-04-01T09:24:46.729Z,6.30
2023-04-01T09:27:31.760Z,6.30
2023-04-01T09:30:17.205Z,6.30
2023-04-01T09:33:05.417Z,6.30
2023-04-01T09:35:41.049Z,6.30
2023-04-01T09:38:29.536Z,6.30
2023-04-01T09:41:11.425Z,6.30
2023-04-01T09:43:56.805Z,6.30
2023-04-01T09:46:35.824Z,6.40
2023-04-01T09:49:05.858Z,6.40
2023-04-01T09:51:35.630Z,6.50
2023-04-01T09:54:19.351Z,6.50
2023-04-01T09:57:12.337Z,6.60
2023-04-01T09:59:57.882Z,6.60
2023-04-01T10:02:47.935Z,6.70
2023-04-01T10:05:30.244Z,6.70
2023-04-01T10:07:57.888Z,6.70
2023-04-01T10:10:24.651Z,6.60
2023-04-01T10:12:51.922Z,6.70
2023-04-01T10:15:31.362Z,6.70
2023-04-01T10:18:07.629Z,6.70
2023-04-01T10:20:53.329Z,6.70
2023-04-01T10:23:20.161Z,6.70
2023-04-01T10:26:09.949Z,6.60
2023-04-01T10:28:55.601Z,6.60
2023-04-01T10:31:25.098Z,6.60
2023-04-01T10:34:00.786Z,6.60
2023-04-01T10:36:31.300Z,6.60
2023-04-01T10:39:13.425Z,6.50
2023-04-01T10:41:43.323Z,6.50
2023-04-01T10:44:28.888Z,6.40
2023-04-01T10:46:55.679Z,6.40
2023-04-01T10:49:34.770Z,6.50
2023-04-01T10:52:07.720Z,6.50
2023-04-01T10:54:37.367Z,6.60
2023-04-01T10:57:25.057Z,6.50
2023-04-01T11:00:07.721Z,6.60
2023-04-01T11:02:43.384Z,6.60
2023-04-01T11:05:34.188Z,6.50
2023-04-01T11:08:14.689Z,6.50
2023-04-01T11:11:00.323Z,6.50
2023-04-01T11:13:45.971Z,6.60
2023-04-01T11:16:31.998Z,6.60
2023-04-01T11:19:05.708Z,6.60
2023-04-01T11:21:41.669Z,6.60
2023-04-01T11:24:17.643Z,6.50
2023-04-01T11:26:59.585Z,6.50
2023-04-01T11:29:33.851Z,6.70
2023-04-01T11:32:03.643Z,6.80
2023-04-01T11:34:30.511Z,6.80
2023-04-01T11:37:12.396Z,6.80
2023-04-01T11:39:51.612Z,6.90
2023-04-01T11:42:37.080Z,6.80
2023-04-01T11:45:13.296Z,6.80
2023-04-01T11:47:55.376Z,6.80
2023-04-01T11:50:22.223Z,6.80
2023-04-01T11:52:58.202Z,6.80
2023-04-01T11:55:29.173Z,6.80
2023-04-01T11:58:06.284Z,6.90
2023-04-01T12:00:36.242Z,7.00
2023-04-01T12:03:11.847Z,7.00
2023-04-01T12:05:41.906Z,6.90
2023-04-01T12:08:16.989Z,7.00
2023-04-01T12:10:55.800Z,7.10
2023-04-01T12:13:23.259Z,7.20
2023-04-01T12:16:08.710Z,7.30
2023-04-01T12:18:54.000Z,7.30
2023-04-01T12:21:28.448Z,7.30
2023-04-01T12:24:02.894Z,7.40
2023-04-01T12:26:38.677Z,7.40
2023-04-01T12:29:11.288Z,7.30
2023-04-01T12:31:49.238Z,7.20
2023-04-01T12:34:25.331Z,7.10
2023-04-01T12:37:07.341Z,7.10
2023-04-01T12:39:40.766Z,7.10
2023-04-01T12:42:21.265Z,7.00
2023-04-01T12:44:54.309Z,7.00
2023-04-01T12:47:21.039Z,6.90
2023-04-01T12:49:53.669Z,7.00
2023-04-01T12:52:40.907Z,6.90
2023-04-01T12:55:20.977Z,7.00
2023-04-01T12:58:05.693Z,7.00
2023-04-01T13:00:32.408Z,7.00
2023-04-01T13:03:02.340Z,6.90
2023-04-01T13:05:39.083Z,6.90
2023-04-01T13:08:14.187Z,6.90
2023-04-01T13:10:41.003Z,6.90
2023-04-01T13:13:07.816Z,6.80
2023-04-01T13:15:37.419Z,6.80
2023-04-01T13:18:04.276Z,6.80
2023-04-01T13:20:31.269Z,6.80
2023-04-01T13:23:16.849Z,6.60
2023-04-01T13:25:46.665Z,6.70
2023-04-01T13:28:13.375Z,6.70
2023-04-01T13:30:56.189Z,6.70
2023-04-01T13:33:43.189Z,6.80
2023-04-01T13:36:28.682Z,6.90
2023-04-01T13:39:30.994Z,7.10
2023-04-01T13:42:03.868Z,7.20
2023-04-01T13:44:33.893Z,7.10
2023-04-01T13:47:06.732Z,7.00
2023-04-01T13:49:33.460Z,7.00
2023-04-01T13:52:19.770Z,6.90
2023-04-01T13:54:56.022Z,7.00
2023-04-01T13:57:38.547Z,6.90
2023-04-01T14:00:14.582Z,6.90
2023-04-01T14:02:55.921Z,6.80
2023-04-01T14:05:43.672Z,6.90
2023-04-01T14:08:25.072Z,7.00
2023-04-01T14:11:07.169Z,6.90
2023-04-01T14:13:45.450Z,7.00
2023-04-01T14:16:15.265Z,7.10
2023-04-01T14:19:00.794Z,7.10
2023-04-01T14:21:35.944Z,7.20
2023-04-01T14:24:21.530Z,7.10
2023-04-01T14:26:51.134Z,7.10
2023-04-01T14:29:31.929Z,7.10
2023-04-01T14:32:11.341Z,7.20
2023-04-01T14:34:44.446Z,7.20
2023-04-01T14:37:29.938Z,7.30
2023-04-01T14:40:06.645Z,7.20
2023-04-01T14:42:51.946Z,7.20
2023-04-01T14:45:30.793Z,7.20
2023-04-01T14:48:06.501Z,7.10
2023-04-01T14:50:53.032Z,7.10
2023-04-01T14:53:26.146Z,7.10
2023-04-01T14:55:57.187Z,7.10
2023-04-01T14:58:28.524Z,7.20
2023-04-01T15:01:07.535Z,7.10
2023-04-01T15:03:39.987Z,7.10
2023-04-01T15:06:22.171Z,7.10
2023-04-01T15:09:07.731Z,7.10
2023-04-01T15:11:34.538Z,7.10
2023-04-01T15:14:13.859Z,7.00
2023-04-01T15:16:45.879Z,7.00
2023-04-01T15:19:12.616Z,6.90
2023-04-01T15:21:58.093Z,7.00
2023-04-01T15:24:26.314Z,7.00
2023-04-01T15:27:02.927Z,7.00
2023-04-01T15:29:45.096Z,6.80
2023-04-01T15:32:17.790Z,6.80
2023-04-01T15:34:47.569Z,6.80
2023-04-01T15:37:27.399Z,6.90
2023-04-01T15:39:57.395Z,6.90
2023-04-01T15:42:29.758Z,7.00
2023-04-01T15:44:56.622Z,6.90
2023-04-01T15:47:26.589Z,6.90
2023-04-01T15:49:58.318Z,7.00
2023-04-01T15:52:44.005Z,6.90
2023-04-01T15:55:20.892Z,7.00
2023-04-01T15:57:47.714Z,6.90
2023-04-01T16:00:22.618Z,6.90
2023-04-01T16:02:52.216Z,6.90
2023-04-01T16:05:19.200Z,6.90
2023-04-01T16:07:57.110Z,6.80
2023-04-01T16:10:23.920Z,7.00
2023-04-01T16:12:50.760Z,7.10
2023-04-01T16:15:20.338Z,7.10
2023-04-01T16:18:16.617Z,7.20
2023-04-01T16:20:43.410Z,7.20
2023-04-01T16:23:22.749Z,7.20
2023-04-01T16:26:08.402Z,7.20
2023-04-01T16:28:41.250Z,7.00
2023-04-01T16:31:18.033Z,7.00
2023-04-01T16:33:50.804Z,7.00
2023-04-01T16:36:23.994Z,7.00
2023-04-01T16:38:50.724Z,7.10
2023-04-01T16:41:20.240Z,7.00
2023-04-01T16:43:55.598Z,6.90
2023-04-01T16:46:31.800Z,7.00
2023-04-01T16:49:14.214Z,7.00
2023-04-01T16:51:50.638Z,7.00
2023-04-01T16:54:37.741Z,6.90
2023-04-01T16:57:17.264Z,6.90
2023-04-01T16:59:49.277Z,6.90
2023-04-01T17:02:21.337Z,6.90
2023-04-01T17:04:49.726Z,6.90
2023-04-01T17:07:16.591Z,6.90
2023-04-01T17:09:43.338Z,7.00
2023-04-01T17:12:21.257Z,6.90
2023-04-01T17:14:54.029Z,6.90
2023-04-01T17:17:20.887Z,7.00
2023-04-01T17:19:59.562Z,6.90
2023-04-01T17:22:38.936Z,6.90
2023-04-01T17:25:14.703Z,6.90
2023-04-01T17:27:45.890Z,6.90
2023-04-01T17:30:12.655Z,6.90
2023-04-01T17:32:48.695Z,6.80
2023-04-01T17:35:15.515Z,6.80
2023-04-01T17:37:42.719Z,6.70
2023-04-01T17:40:09.670Z,6.70
2023-04-01T17:43:01.630Z,6.70
2023-04-01T17:45:41.709Z,6.60
2023-04-01T17:48:27.304Z,6.60
2023-04-01T17:51:06.111Z,6.60
2023-04-01T17:53:37.457Z,6.60
2023-04-01T17:56:18.594Z,6.60
2023-04-01T17:58:47.422Z,6.70
2023-04-01T18:01:26.556Z,6.70
2023-04-01T18:04:05.914Z,6.70
2023-04-01T18:06:51.432Z,6.80
2023-04-01T18:09:37.458Z,6.70
2023-04-01T18:12:20.727Z,6.80
2023-04-01T18:15:06.570Z,6.80
2023-04-01T18:17:51.879Z,6.80
2023-04-01T18:20:37.351Z,6.80
2023-04-01T18:23:07.397Z,6.80
2023-04-01T18:25:42.911Z,6.70
2023-04-01T18:28:12.706Z,6.70
2023-04-01T18:30:40.621Z,6.80
2023-04-01T18:33:19.235Z,6.80
2023-04-01T18:35:54.115Z,6.80
2023-04-01T18:38:33.111Z,6.80
2023-04-01T18:41:16.227Z,6.70
2023-04-01T18:44:04.396Z,6.70
2023-04-01T18:46:35.202Z,6.70
2023-04-01T18:49:22.201Z,6.70
2023-04-01T18:51:51.673Z,6.60
2023-04-01T18:54:28.277Z,6.70
2023-04-01T18:57:21.475Z,6.60
2023-04-01T18:59:53.571Z,6.60
2023-04-01T19:02:33.080Z,6.60
2023-04-01T19:05:15.087Z,6.60
2023-04-01T19:07:44.189Z,6.60
2023-04-01T19:10:15.359Z,6.60
2023-04-01T19:12:54.462Z,6.60
2023-04-01T19:15:28.902Z,6.60
2023-04-01T19:18:01.974Z,6.60
2023-04-01T19:20:40.828Z,6.60
2023-04-01T19:23:19.571Z,6.60
2023-04-01T19:25:48.514Z,6.50
2023-04-01T19:28:36.138Z,6.60
2023-04-01T19:31:05.989Z,6.60
2023-04-01T19:33:50.853Z,6.60
2023-04-01T19:36:33.459Z,6.60
2023-04-01T19:39:11.028Z,6.60
2023-04-01T19:41:52.629Z,6.60
2023-04-01T19:44:25.538Z,6.60
2023-04-01T19:46:52.505Z,6.60
2023-04-01T19:49:25.447Z,6.60
2023-04-01T19:52:01.977Z,6.60
2023-04-01T19:54:31.879Z,6.60
2023-04-01T19:57:04.581Z,6.50
2023-04-01T19:59:34.243Z,6.50
2023-04-01T20:02:12.093Z,6.50
2023-04-01T20:05:00.934Z,6.50
2023-04-01T20:07:33.657Z,6.50
2023-04-01T20:10:19.216Z,6.50
2023-04-01T20:12:54.166Z,6.50
2023-04-01T20:15:29.846Z,6.50
2023-04-01T20:17:59.014Z,6.40
2023-04-01T20:20:27.105Z,6.40
2023-04-01T20:22:53.920Z,6.30
2023-04-01T20:25:24.069Z,6.30
2023-04-01T20:28:06.122Z,6.30
2023-04-01T20:30:45.803Z,6.30
2023-04-01T20:33:31.352Z,6.30
2023-04-01T20:36:16.922Z,6.20
2023-04-01T20:38:52.730Z,6.30
2023-04-01T20:41:33.929Z,6.30
2023-04-01T20:44:19.454Z,6.30
2023-04-01T20:46:54.844Z,6.20
2023-04-01T20:49:44.793Z,6.20
2023-04-01T20:52:14.739Z,6.20
2023-04-01T20:54:59.681Z,6.20
2023-04-01T20:57:33.084Z,6.20
2023-04-01T21:00:03.000Z,6.20
2023-04-01T21:02:45.150Z,6.20
2023-04-01T21:05:31.015Z,6.20
2023-04-01T21:08:09.775Z,6.20
2023-04-01T21:10:36.626Z,6.20
2023-04-01T21:13:11.493Z,6.20
2023-04-01T21:16:01.625Z,6.20
2023-04-01T21:18:37.730Z,6.20
2023-04-01T21:21:23.173Z,6.20
2023-04-01T21:24:08.604Z,6.20
2023-04-01T21:26:44.288Z,6.20
2023-04-01T21:29:29.951Z,6.20
2023-04-01T21:32:15.137Z,6.20
2023-04-01T21:34:52.706Z,6.20
2023-04-01T21:37:22.994Z,6.20
2023-04-01T21:39:58.761Z,6.20
2023-04-01T21:42:34.977Z,6.20
2023-04-01T21:45:01.687Z,6.20
2023-04-01T21:47:47.516Z,6.20
2023-04-01T21:50:17.155Z,6.20
2023-04-01T21:52:52.900Z,6.10
2023-04-01T21:55:46.431Z,6.10
2023-04-01T21:58:31.448Z,6.10
2023-04-01T22:01:09.544Z,6.00
2023-04-01T22:03:39.403Z,6.00
2023-04-01T22:06:11.454Z,5.90
2023-04-01T22:08:45.477Z,5.90
2023-04-01T22:11:24.916Z,5.80
2023-04-01T22:14:07.715Z,5.80
2023-04-01T22:16:40.870Z,5.80
2023-04-01T22:19:14.347Z,5.80
2023-04-01T22:21:53.235Z,5.80
2023-04-01T22:24:38.586Z,5.80
2023-04-01T22:27:16.922Z,5.70
2023-04-01T22:30:03.209Z,5.70
2023-04-01T22:32:36.694Z,5.70
2023-04-01T22:35:06.937Z,5.70
2023-04-01T22:37:33.729Z,5.70
2023-04-01T22:40:16.730Z,5.60
2023-04-01T22:42:49.004Z,5.60
2023-04-01T22:45:23.934Z,5.60
2023-04-01T22:47:52.621Z,5.70
2023-04-01T22:50:22.086Z,5.60
2023-04-01T22:52:49.815Z,5.60
2023-04-01T22:55:16.585Z,5.60
2023-04-01T22:57:47.497Z,5.60
2023-04-01T23:00:25.306Z,5.60
2023-04-01T23:03:10.401Z,5.60
2023-04-01T23:05:41.547Z,5.60
2023-04-01T23:08:21.451Z,5.60
2023-04-01T23:10:53.843Z,5.50
2023-04-01T23:13:24.021Z,5.50
2023-04-01T23:15:52.828Z,5.50
2023-04-01T23:18:28.882Z,5.50
2023-04-01T23:20:58.845Z,5.50
2023-04-01T23:23:37.736Z,5.50
2023-04-01T23:26:16.916Z,5.50
2023-04-01T23:28:49.066Z,5.40
2023-04-01T23:31:32.602Z,5.40
2023-04-01T23:34:04.478Z,5.40
2023-04-01T23:36:32.040Z,5.40
2023-04-01T23:39:00.128Z,5.30
2023-04-01T23:41:29.357Z,5.30
2023-04-01T23:53:46.565Z,5.30
2023-04-01T23:56:14.075Z,5.20
2023-04-01T23:58:53.479Z,5.20
